Island Venture — WDG3765 — position and weather

sailwx.info

Track history (hours):
 
Tides and Currents Weather Stations Pressure Air Temp Water Temp Dewpoint Dewpoint Depression Visibility Wind Speed Wind Dir Waves Ship Positions

Island Venture

Owner: Island Tug and Barge, Seattle, WA. More information available from US FCC via Universal Licensing System and Coast Guard Vessel Documentation Center.

Last reported at 2017-Jan-22 21:28 UTC. Time now 2017-Jan-22 22:26 UTC.
Position N 47°59' W 122°37'.

MMSI: 367529420.

Date/timePositionNaut miles runAvg speedWind from/ knotsBaromVisibWave heightAir tempDewpointWater temp
2017-Jan-22 21:28N 47°59' W 122°37'12 6.0
2017-Jan-22 19:27N 48°10' W 122°46'12 6.3
2017-Jan-22 17:33N 48°22' W 122°46'7 6.6
2017-Jan-22 16:33N 48°28' W 122°44'7 6.9
2017-Jan-22 15:33N 48°35' W 122°45'7 6.5
2017-Jan-22 14:33N 48°42' W 122°44'6 6.3
2017-Jan-22 13:33N 48°46' W 122°51'7 6.5
2017-Jan-22 12:31N 48°50' W 122°60'7 6.8
2017-Jan-22 11:33N 48°54' W 123°08'7 7.1
2017-Jan-22 10:33N 48°59' W 123°15'7 6.7
2017-Jan-22 09:33N 49°03' W 123°23'7 6.8
2017-Jan-22 08:33N 49°10' W 123°23'6 6.3
2017-Jan-22 07:33N 49°16' W 123°18'2 1.6
2017-Jan-22 06:33N 49°15' W 123°15'0 0.0
2017-Jan-22 05:34N 49°15' W 123°15'0 0.0
2017-Jan-22 04:33N 49°15' W 123°15'0 0.0
2017-Jan-22 03:33N 49°15' W 123°15'0 0.0
2017-Jan-22 02:33N 49°15' W 123°15'0 0.2
2017-Jan-22 01:33N 49°15' W 123°16'0 0.0
2017-Jan-22 00:33N 49°15' W 123°16'0 0.0
2017-Jan-21 23:33N 49°15' W 123°16'0 0.0
2017-Jan-21 22:33N 49°15' W 123°16'0 0.0
2017-Jan-21 21:33N 49°15' W 123°16'0 0.0
2017-Jan-21 20:33N 49°15' W 123°16'0 0.0
2017-Jan-21 19:33N 49°15' W 123°16'0 0.0
2017-Jan-21 18:33N 49°15' W 123°16'0 0.0
2017-Jan-21 17:33N 49°15' W 123°16'0 0.0
2017-Jan-21 16:33N 49°15' W 123°16'0 0.0
2017-Jan-21 15:33N 49°15' W 123°16'0 0.0
2017-Jan-21 14:33N 49°15' W 123°16'0 0.0
2017-Jan-21 13:33N 49°15' W 123°16'1 1.3
2017-Jan-21 12:33N 49°16' W 123°17'6 6.3
2017-Jan-21 11:33N 49°09' W 123°20'6 5.5
2017-Jan-21 10:33N 49°04' W 123°20'6 5.6
2017-Jan-21 09:33N 49°00' W 123°13'6 5.7
2017-Jan-21 08:33N 48°56' W 123°07'6 6.1
2017-Jan-21 07:33N 48°52' W 123°00'7 6.8
2017-Jan-21 06:29N 48°48' W 122°51'8 8.1
2017-Jan-21 05:31N 48°42' W 122°43'8 8.2
2017-Jan-21 04:33N 48°34' W 122°45'8 8.4
2017-Jan-21 03:33N 48°26' W 122°44'26 8.0
2017-Jan-21 00:20N 48°01' W 122°36'8 9.9
2017-Jan-20 23:33N 47°55' W 122°29'9 9.2
2017-Jan-20 22:33N 47°46' W 122°26'8 8.4
2017-Jan-20 21:33N 47°38' W 122°25'5 4.9
2017-Jan-20 20:33N 47°34' W 122°21'1 0.6
2017-Jan-20 19:33N 47°34' W 122°21'0 0.0
2017-Jan-20 18:33N 47°34' W 122°21'0 0.0
2017-Jan-20 17:33N 47°34' W 122°21'0 0.0
2017-Jan-20 16:33N 47°34' W 122°21'1 0.9
2017-Jan-20 15:33N 47°35' W 122°22'2 1.6
2017-Jan-20 14:33N 47°34' W 122°21'0 0.0
2017-Jan-20 13:33N 47°34' W 122°21'0 0.0
2017-Jan-20 12:33N 47°34' W 122°21'0 0.0
2017-Jan-20 11:33N 47°34' W 122°21'0 0.0
2017-Jan-20 10:33N 47°34' W 122°21'0 0.0
2017-Jan-20 09:33N 47°34' W 122°21'0 0.0
2017-Jan-20 08:33N 47°34' W 122°21'1 1.4
2017-Jan-20 07:33N 47°35' W 122°22'0 0.4
2017-Jan-20 06:33N 47°35' W 122°22'0 0.0
2017-Jan-20 05:33N 47°35' W 122°22'1 0.5
2017-Jan-20 04:33N 47°35' W 122°22'2 1.5
2017-Jan-20 03:34N 47°33' W 122°21'0 0.0
2017-Jan-20 02:33N 47°33' W 122°21'3 2.7
2017-Jan-20 01:33N 47°36' W 122°22'3 3.1
2017-Jan-20 00:33N 47°34' W 122°26'6 5.9
2017-Jan-19 23:33N 47°29' W 122°30'7 7.4
2017-Jan-19 22:33N 47°22' W 122°32'9 8.6
2017-Jan-19 21:33N 47°13' W 122°35'5 0.1
2017-Jan-18 11:33N 47°18' W 122°33'6 5.8
2017-Jan-18 10:33N 47°24' W 122°32'6 5.7
2017-Jan-18 09:33N 47°29' W 122°30'6 5.8
2017-Jan-18 08:33N 47°35' W 122°26'3 3.4
2017-Jan-18 07:33N 47°34' W 122°21'1 0.7
2017-Jan-18 06:33N 47°34' W 122°21'0 0.0
2017-Jan-18 05:33N 47°34' W 122°21'0 0.0
2017-Jan-18 04:33N 47°34' W 122°21'0 0.0
2017-Jan-18 03:33N 47°34' W 122°21'0 0.0
2017-Jan-18 02:33N 47°34' W 122°21'0 0.0
2017-Jan-18 01:33N 47°34' W 122°21'1 0.6
2017-Jan-18 00:33N 47°34' W 122°21'2 2.2
2017-Jan-17 23:33N 47°36' W 122°22'5 5.2
2017-Jan-17 22:33N 47°32' W 122°28'7 6.9
2017-Jan-17 21:33N 47°26' W 122°32'7 7.0
2017-Jan-17 20:33N 47°19' W 122°33'7 7.5
2017-Jan-17 19:33N 47°12' W 122°36'4 1.9
2017-Jan-17 17:27N 47°08' W 122°39'3 0.7
2017-Jan-17 12:27N 47°11' W 122°37'7 6.1
2017-Jan-17 11:20N 47°17' W 122°33'2 3.0
2017-Jan-17 10:33N 47°19' W 122°30'3 0.6
2017-Jan-17 05:25N 47°18' W 122°26'0 0.0
2017-Jan-17 04:06N 47°18' W 122°26'1 0.3
2017-Jan-17 01:33N 47°17' W 122°26'5 4.9
2017-Jan-17 00:32N 47°20' W 122°32'5 4.8
2017-Jan-16 23:33N 47°15' W 122°34'4 0.7
2017-Jan-16 17:33N 47°19' W 122°33'6 4.3
2017-Jan-16 16:05N 47°17' W 122°25'1 2.2
2017-Jan-16 15:30N 47°18' W 122°26'5 4.9
2017-Jan-16 14:33N 47°22' W 122°24'6 6.3
2017-Jan-16 13:33N 47°28' W 122°25'7 7.2
2017-Jan-16 12:33N 47°35' W 122°25'3 2.6
2017-Jan-16 11:33N 47°34' W 122°21'0 0.0
2017-Jan-16 10:33N 47°34' W 122°21'0 0.0
2017-Jan-16 09:34N 47°34' W 122°21'2 1.7
2017-Jan-16 08:33N 47°36' W 122°22'5 4.6
2017-Jan-16 07:33N 47°39' W 122°28'6 5.8
2017-Jan-16 06:33N 47°45' W 122°27'6 6.0
2017-Jan-16 05:33N 47°51' W 122°29'5 5.4
2017-Jan-16 04:33N 47°56' W 122°31'5 5.3
2017-Jan-16 03:32N 47°60' W 122°37'13 6.7
2017-Jan-16 01:32N 48°11' W 122°47'10 7.4
2017-Jan-16 00:11N 48°21' W 122°46'5 7.4
2017-Jan-15 23:33N 48°26' W 122°45'8 8.0
2017-Jan-15 22:33N 48°34' W 122°45'8 7.6
2017-Jan-15 21:33N 48°41' W 122°44'10 7.8
2017-Jan-15 20:18N 48°48' W 122°55'6 7.9
2017-Jan-15 19:33N 48°51' W 123°03'8 8.3
2017-Jan-15 18:33N 48°56' W 123°12'8 8.5
2017-Jan-15 17:33N 49°02' W 123°22'8 6.9
2017-Jan-15 16:25N 49°10' W 123°23'6 6.5
2017-Jan-15 15:33N 49°15' W 123°19'3 0.3
2017-Jan-15 07:15N 49°15' W 123°15'0 0.0
2017-Jan-15 06:29N 49°15' W 123°15'0 0.0
2017-Jan-14 21:33N 49°15' W 123°15'0 0.0
2017-Jan-14 19:33N 49°15' W 123°15'0 0.0
2017-Jan-14 04:29N 49°15' W 123°15'0 0.0
2017-Jan-13 20:27N 49°15' W 123°15'1 1.6
2017-Jan-13 19:33N 49°16' W 123°17'6 5.9
2017-Jan-13 18:33N 49°10' W 123°20'5 5.3
2017-Jan-13 17:33N 49°05' W 123°21'5 5.0
2017-Jan-13 16:33N 49°01' W 123°16'4 3.7
2017-Jan-13 15:33N 48°59' W 123°11'3 2.7
2017-Jan-13 14:32N 48°57' W 123°08'4 3.9
2017-Jan-13 13:30N 48°54' W 123°03'6 6.4
2017-Jan-13 12:33N 48°50' W 122°56'6 5.8
2017-Jan-13 11:30N 48°46' W 122°49'6 6.1
2017-Jan-13 10:32N 48°42' W 122°43'7 7.4
2017-Jan-13 09:33N 48°35' W 122°45'8 8.0
2017-Jan-13 08:32N 48°27' W 122°44'26 6.4
2017-Jan-13 04:28N 48°01' W 122°37'910.0
2017-Jan-13 03:33N 47°54' W 122°28'9 9.2
2017-Jan-13 02:33N 47°45' W 122°25'8 8.0
2017-Jan-13 01:33N 47°37' W 122°24'3 3.1
2017-Jan-13 00:33N 47°34' W 122°21'0 0.0
2017-Jan-12 23:33N 47°34' W 122°21'0 0.1
2017-Jan-12 22:33N 47°34' W 122°22'2 2.0
2017-Jan-12 21:33N 47°33' W 122°20'  
Track history (hours):
 
Tides and Currents Weather Stations Pressure Air Temp Water Temp Dewpoint Dewpoint Depression Visibility Wind Speed Wind Dir Waves Ship Positions

Island Venture

Owner: Island Tug and Barge, Seattle, WA. More information available from US FCC via Universal Licensing System and Coast Guard Vessel Documentation Center.

Last reported at 2017-Jan-22 21:28 UTC. Time now 2017-Jan-22 22:26 UTC.
Position N 47°59' W 122°37'.

MMSI: 367529420.

Date/timePositionNaut miles runAvg speedWind from/ knotsBaromVisibWave heightAir tempDewpointWater temp
2017-Jan-22 21:28N 47°59' W 122°37'12 6.0
2017-Jan-22 19:27N 48°10' W 122°46'12 6.3
2017-Jan-22 17:33N 48°22' W 122°46'7 6.6
2017-Jan-22 16:33N 48°28' W 122°44'7 6.9
2017-Jan-22 15:33N 48°35' W 122°45'7 6.5
2017-Jan-22 14:33N 48°42' W 122°44'6 6.3
2017-Jan-22 13:33N 48°46' W 122°51'7 6.5
2017-Jan-22 12:31N 48°50' W 122°60'7 6.8
2017-Jan-22 11:33N 48°54' W 123°08'7 7.1
2017-Jan-22 10:33N 48°59' W 123°15'7 6.7
2017-Jan-22 09:33N 49°03' W 123°23'7 6.8
2017-Jan-22 08:33N 49°10' W 123°23'6 6.3
2017-Jan-22 07:33N 49°16' W 123°18'2 1.6
2017-Jan-22 06:33N 49°15' W 123°15'0 0.0
2017-Jan-22 05:34N 49°15' W 123°15'0 0.0
2017-Jan-22 04:33N 49°15' W 123°15'0 0.0
2017-Jan-22 03:33N 49°15' W 123°15'0 0.0
2017-Jan-22 02:33N 49°15' W 123°15'0 0.2
2017-Jan-22 01:33N 49°15' W 123°16'0 0.0
2017-Jan-22 00:33N 49°15' W 123°16'0 0.0
2017-Jan-21 23:33N 49°15' W 123°16'0 0.0
2017-Jan-21 22:33N 49°15' W 123°16'0 0.0
2017-Jan-21 21:33N 49°15' W 123°16'0 0.0
2017-Jan-21 20:33N 49°15' W 123°16'0 0.0
2017-Jan-21 19:33N 49°15' W 123°16'0 0.0
2017-Jan-21 18:33N 49°15' W 123°16'0 0.0
2017-Jan-21 17:33N 49°15' W 123°16'0 0.0
2017-Jan-21 16:33N 49°15' W 123°16'0 0.0
2017-Jan-21 15:33N 49°15' W 123°16'0 0.0
2017-Jan-21 14:33N 49°15' W 123°16'0 0.0
2017-Jan-21 13:33N 49°15' W 123°16'1 1.3
2017-Jan-21 12:33N 49°16' W 123°17'6 6.3
2017-Jan-21 11:33N 49°09' W 123°20'6 5.5
2017-Jan-21 10:33N 49°04' W 123°20'6 5.6
2017-Jan-21 09:33N 49°00' W 123°13'6 5.7
2017-Jan-21 08:33N 48°56' W 123°07'6 6.1
2017-Jan-21 07:33N 48°52' W 123°00'7 6.8
2017-Jan-21 06:29N 48°48' W 122°51'8 8.1
2017-Jan-21 05:31N 48°42' W 122°43'8 8.2
2017-Jan-21 04:33N 48°34' W 122°45'8 8.4
2017-Jan-21 03:33N 48°26' W 122°44'26 8.0
2017-Jan-21 00:20N 48°01' W 122°36'8 9.9
2017-Jan-20 23:33N 47°55' W 122°29'9 9.2
2017-Jan-20 22:33N 47°46' W 122°26'8 8.4
2017-Jan-20 21:33N 47°38' W 122°25'5 4.9
2017-Jan-20 20:33N 47°34' W 122°21'1 0.6
2017-Jan-20 19:33N 47°34' W 122°21'0 0.0
2017-Jan-20 18:33N 47°34' W 122°21'0 0.0
2017-Jan-20 17:33N 47°34' W 122°21'0 0.0
2017-Jan-20 16:33N 47°34' W 122°21'1 0.9
2017-Jan-20 15:33N 47°35' W 122°22'2 1.6
2017-Jan-20 14:33N 47°34' W 122°21'0 0.0
2017-Jan-20 13:33N 47°34' W 122°21'0 0.0
2017-Jan-20 12:33N 47°34' W 122°21'0 0.0
2017-Jan-20 11:33N 47°34' W 122°21'0 0.0
2017-Jan-20 10:33N 47°34' W 122°21'0 0.0
2017-Jan-20 09:33N 47°34' W 122°21'0 0.0
2017-Jan-20 08:33N 47°34' W 122°21'1 1.4
2017-Jan-20 07:33N 47°35' W 122°22'0 0.4
2017-Jan-20 06:33N 47°35' W 122°22'0 0.0
2017-Jan-20 05:33N 47°35' W 122°22'1 0.5
2017-Jan-20 04:33N 47°35' W 122°22'2 1.5
2017-Jan-20 03:34N 47°33' W 122°21'0 0.0
2017-Jan-20 02:33N 47°33' W 122°21'3 2.7
2017-Jan-20 01:33N 47°36' W 122°22'3 3.1
2017-Jan-20 00:33N 47°34' W 122°26'6 5.9
2017-Jan-19 23:33N 47°29' W 122°30'7 7.4
2017-Jan-19 22:33N 47°22' W 122°32'9 8.6
2017-Jan-19 21:33N 47°13' W 122°35'5 0.1
2017-Jan-18 11:33N 47°18' W 122°33'6 5.8
2017-Jan-18 10:33N 47°24' W 122°32'6 5.7
2017-Jan-18 09:33N 47°29' W 122°30'6 5.8
2017-Jan-18 08:33N 47°35' W 122°26'3 3.4
2017-Jan-18 07:33N 47°34' W 122°21'1 0.7
2017-Jan-18 06:33N 47°34' W 122°21'0 0.0
2017-Jan-18 05:33N 47°34' W 122°21'0 0.0
2017-Jan-18 04:33N 47°34' W 122°21'0 0.0
2017-Jan-18 03:33N 47°34' W 122°21'0 0.0
2017-Jan-18 02:33N 47°34' W 122°21'0 0.0
2017-Jan-18 01:33N 47°34' W 122°21'1 0.6
2017-Jan-18 00:33N 47°34' W 122°21'2 2.2
2017-Jan-17 23:33N 47°36' W 122°22'5 5.2
2017-Jan-17 22:33N 47°32' W 122°28'7 6.9
2017-Jan-17 21:33N 47°26' W 122°32'7 7.0
2017-Jan-17 20:33N 47°19' W 122°33'7 7.5
2017-Jan-17 19:33N 47°12' W 122°36'4 1.9
2017-Jan-17 17:27N 47°08' W 122°39'3 0.7
2017-Jan-17 12:27N 47°11' W 122°37'7 6.1
2017-Jan-17 11:20N 47°17' W 122°33'2 3.0
2017-Jan-17 10:33N 47°19' W 122°30'3 0.6
2017-Jan-17 05:25N 47°18' W 122°26'0 0.0
2017-Jan-17 04:06N 47°18' W 122°26'1 0.3
2017-Jan-17 01:33N 47°17' W 122°26'5 4.9
2017-Jan-17 00:32N 47°20' W 122°32'5 4.8
2017-Jan-16 23:33N 47°15' W 122°34'4 0.7
2017-Jan-16 17:33N 47°19' W 122°33'6 4.3
2017-Jan-16 16:05N 47°17' W 122°25'1 2.2
2017-Jan-16 15:30N 47°18' W 122°26'5 4.9
2017-Jan-16 14:33N 47°22' W 122°24'6 6.3
2017-Jan-16 13:33N 47°28' W 122°25'7 7.2
2017-Jan-16 12:33N 47°35' W 122°25'3 2.6
2017-Jan-16 11:33N 47°34' W 122°21'0 0.0
2017-Jan-16 10:33N 47°34' W 122°21'0 0.0
2017-Jan-16 09:34N 47°34' W 122°21'2 1.7
2017-Jan-16 08:33N 47°36' W 122°22'5 4.6
2017-Jan-16 07:33N 47°39' W 122°28'6 5.8
2017-Jan-16 06:33N 47°45' W 122°27'6 6.0
2017-Jan-16 05:33N 47°51' W 122°29'5 5.4
2017-Jan-16 04:33N 47°56' W 122°31'5 5.3
2017-Jan-16 03:32N 47°60' W 122°37'13 6.7
2017-Jan-16 01:32N 48°11' W 122°47'10 7.4
2017-Jan-16 00:11N 48°21' W 122°46'5 7.4
2017-Jan-15 23:33N 48°26' W 122°45'8 8.0
2017-Jan-15 22:33N 48°34' W 122°45'8 7.6
2017-Jan-15 21:33N 48°41' W 122°44'10 7.8
2017-Jan-15 20:18N 48°48' W 122°55'6 7.9
2017-Jan-15 19:33N 48°51' W 123°03'8 8.3
2017-Jan-15 18:33N 48°56' W 123°12'8 8.5
2017-Jan-15 17:33N 49°02' W 123°22'8 6.9
2017-Jan-15 16:25N 49°10' W 123°23'6 6.5
2017-Jan-15 15:33N 49°15' W 123°19'3 0.3
2017-Jan-15 07:15N 49°15' W 123°15'0 0.0
2017-Jan-15 06:29N 49°15' W 123°15'0 0.0
2017-Jan-14 21:33N 49°15' W 123°15'0 0.0
2017-Jan-14 19:33N 49°15' W 123°15'0 0.0
2017-Jan-14 04:29N 49°15' W 123°15'0 0.0
2017-Jan-13 20:27N 49°15' W 123°15'1 1.6
2017-Jan-13 19:33N 49°16' W 123°17'6 5.9
2017-Jan-13 18:33N 49°10' W 123°20'5 5.3
2017-Jan-13 17:33N 49°05' W 123°21'5 5.0
2017-Jan-13 16:33N 49°01' W 123°16'4 3.7
2017-Jan-13 15:33N 48°59' W 123°11'3 2.7
2017-Jan-13 14:32N 48°57' W 123°08'4 3.9
2017-Jan-13 13:30N 48°54' W 123°03'6 6.4
2017-Jan-13 12:33N 48°50' W 122°56'6 5.8
2017-Jan-13 11:30N 48°46' W 122°49'6 6.1
2017-Jan-13 10:32N 48°42' W 122°43'7 7.4
2017-Jan-13 09:33N 48°35' W 122°45'8 8.0
2017-Jan-13 08:32N 48°27' W 122°44'26 6.4
2017-Jan-13 04:28N 48°01' W 122°37'910.0
2017-Jan-13 03:33N 47°54' W 122°28'9 9.2
2017-Jan-13 02:33N 47°45' W 122°25'8 8.0
2017-Jan-13 01:33N 47°37' W 122°24'3 3.1
2017-Jan-13 00:33N 47°34' W 122°21'0 0.0
2017-Jan-12 23:33N 47°34' W 122°21'0 0.1
2017-Jan-12 22:33N 47°34' W 122°22'2 2.0
2017-Jan-12 21:33N 47°33' W 122°20'  

Dump ship's entire track history